sensor_id;sensor_type;location;lat;lon;timestamp;pressure;altitude;pressure_sealevel;temperature;humidity
43621;BME280;29213;50.770;7.298;2023-03-11T00:00:11;99837.91;;;-0.53;63.59
43621;BME280;29213;50.770;7.298;2023-03-11T00:02:46;99854.25;;;-0.49;63.29
43621;BME280;29213;50.770;7.298;2023-03-11T00:05:16;99859.81;;;-0.67;62.62
43621;BME280;29213;50.770;7.298;2023-03-11T00:07:42;99821.28;;;-0.89;62.74
43621;BME280;29213;50.770;7.298;2023-03-11T00:10:13;99770.50;;;-1.11;62.40
43621;BME280;29213;50.770;7.298;2023-03-11T00:12:39;99749.50;;;-1.10;62.11
43621;BME280;29213;50.770;7.298;2023-03-11T00:15:04;99854.03;;;-0.59;62.54
43621;BME280;29213;50.770;7.298;2023-03-11T00:17:30;99695.13;;;-1.55;61.80
43621;BME280;29213;50.770;7.298;2023-03-11T00:19:55;99858.28;;;-0.45;62.17
43621;BME280;29213;50.770;7.298;2023-03-11T00:22:21;99785.94;;;-0.95;62.02
43621;BME280;29213;50.770;7.298;2023-03-11T00:24:46;99861.19;;;-0.37;61.30
43621;BME280;29213;50.770;7.298;2023-03-11T00:27:11;99856.16;;;-0.40;62.11
43621;BME280;29213;50.770;7.298;2023-03-11T00:29:37;99789.78;;;-0.75;61.23
43621;BME280;29213;50.770;7.298;2023-03-11T00:32:02;99811.41;;;-0.73;60.97
43621;BME280;29213;50.770;7.298;2023-03-11T00:34:28;99854.00;;;-0.46;61.14
43621;BME280;29213;50.770;7.298;2023-03-11T00:36:53;99787.72;;;-0.96;60.76
43621;BME280;29213;50.770;7.298;2023-03-11T00:39:19;99835.72;;;-0.59;60.87
43621;BME280;29213;50.770;7.298;2023-03-11T00:41:44;99839.22;;;-0.72;60.95
43621;BME280;29213;50.770;7.298;2023-03-11T00:44:09;99864.50;;;-0.59;60.64
43621;BME280;29213;50.770;7.298;2023-03-11T00:46:37;99898.31;;;-0.56;60.39
43621;BME280;29213;50.770;7.298;2023-03-11T00:49:02;99887.75;;;-0.55;60.45
43621;BME280;29213;50.770;7.298;2023-03-11T00:51:27;99865.69;;;-0.63;60.58
43621;BME280;29213;50.770;7.298;2023-03-11T00:53:53;99882.56;;;-0.43;60.41
43621;BME280;29213;50.770;7.298;2023-03-11T00:56:19;99911.31;;;-0.30;60.57
43621;BME280;29213;50.770;7.298;2023-03-11T00:58:44;99903.69;;;-0.33;60.83
43621;BME280;29213;50.770;7.298;2023-03-11T01:01:13;99906.09;;;-0.30;60.57
43621;BME280;29213;50.770;7.298;2023-03-11T01:03:39;99915.88;;;-0.21;60.70
43621;BME280;29213;50.770;7.298;2023-03-11T01:06:05;99916.50;;;-0.17;60.84
43621;BME280;29213;50.770;7.298;2023-03-11T01:08:31;99917.88;;;-0.24;60.97
43621;BME280;29213;50.770;7.298;2023-03-11T01:10:57;99917.34;;;-0.17;60.68
43621;BME280;29213;50.770;7.298;2023-03-11T01:13:23;99873.09;;;-0.57;61.05
43621;BME280;29213;50.770;7.298;2023-03-11T01:15:49;99841.47;;;-0.91;60.65
43621;BME280;29213;50.770;7.298;2023-03-11T01:18:14;99874.50;;;-0.77;60.84
43621;BME280;29213;50.770;7.298;2023-03-11T01:20:41;99935.94;;;-0.33;60.51
43621;BME280;29213;50.770;7.298;2023-03-11T01:23:08;99935.25;;;-0.23;60.86
43621;BME280;29213;50.770;7.298;2023-03-11T01:25:34;99903.47;;;-0.30;60.37
43621;BME280;29213;50.770;7.298;2023-03-11T01:28:00;99777.31;;;-1.22;60.09
43621;BME280;29213;50.770;7.298;2023-03-11T01:30:27;99825.72;;;-1.03;60.67
43621;BME280;29213;50.770;7.298;2023-03-11T01:32:54;99948.44;;;-0.25;60.52
43621;BME280;29213;50.770;7.298;2023-03-11T01:35:21;99939.94;;;-0.16;60.19
43621;BME280;29213;50.770;7.298;2023-03-11T01:37:47;99947.09;;;-0.18;60.42
43621;BME280;29213;50.770;7.298;2023-03-11T01:40:19;99914.41;;;-0.49;60.35
43621;BME280;29213;50.770;7.298;2023-03-11T01:42:45;99954.44;;;-0.23;60.03
43621;BME280;29213;50.770;7.298;2023-03-11T01:45:40;99953.13;;;-0.17;60.21
43621;BME280;29213;50.770;7.298;2023-03-11T01:48:07;99965.59;;;-0.21;60.52
43621;BME280;29213;50.770;7.298;2023-03-11T01:50:39;99958.19;;;-0.27;60.76
43621;BME280;29213;50.770;7.298;2023-03-11T01:53:06;99916.50;;;-0.55;60.48
43621;BME280;29213;50.770;7.298;2023-03-11T01:55:32;99901.75;;;-0.56;60.09
43621;BME280;29213;50.770;7.298;2023-03-11T01:58:00;99917.84;;;-0.49;60.57
43621;BME280;29213;50.770;7.298;2023-03-11T02:00:27;99888.91;;;-0.72;60.22
43621;BME280;29213;50.770;7.298;2023-03-11T02:02:54;99883.34;;;-0.67;60.52
43621;BME280;29213;50.770;7.298;2023-03-11T02:05:23;99858.47;;;-0.73;59.98
43621;BME280;29213;50.770;7.298;2023-03-11T02:07:49;99957.53;;;-0.05;59.62
43621;BME280;29213;50.770;7.298;2023-03-11T02:10:16;99897.94;;;-0.39;60.00
43621;BME280;29213;50.770;7.298;2023-03-11T02:12:42;99872.66;;;-0.51;59.52
43621;BME280;29213;50.770;7.298;2023-03-11T02:15:10;99970.22;;;0.13;59.29
43621;BME280;29213;50.770;7.298;2023-03-11T02:17:38;99973.16;;;0.08;59.31
43621;BME280;29213;50.770;7.298;2023-03-11T02:20:12;99973.41;;;0.05;59.08
43621;BME280;29213;50.770;7.298;2023-03-11T02:22:41;99974.50;;;0.14;59.02
43621;BME280;29213;50.770;7.298;2023-03-11T02:25:37;99911.69;;;-0.23;58.70
43621;BME280;29213;50.770;7.298;2023-03-11T02:28:06;99916.56;;;-0.30;59.04
43621;BME280;29213;50.770;7.298;2023-03-11T02:30:33;99927.03;;;-0.30;58.86
43621;BME280;29213;50.770;7.298;2023-03-11T02:33:00;99977.78;;;0.05;58.91
43621;BME280;29213;50.770;7.298;2023-03-11T02:35:26;99973.78;;;0.12;58.96
43621;BME280;29213;50.770;7.298;2023-03-11T02:37:52;99978.97;;;0.25;58.57
43621;BME280;29213;50.770;7.298;2023-03-11T02:42:55;99977.78;;;0.29;58.14
43621;BME280;29213;50.770;7.298;2023-03-11T02:45:24;99985.31;;;0.34;58.04
43621;BME280;29213;50.770;7.298;2023-03-11T02:47:54;99970.03;;;0.27;58.14
43621;BME280;29213;50.770;7.298;2023-03-11T02:50:21;99992.97;;;0.37;57.63
43621;BME280;29213;50.770;7.298;2023-03-11T02:52:48;99936.44;;;-0.03;57.88
43621;BME280;29213;50.770;7.298;2023-03-11T02:55:14;99993.31;;;0.32;57.57
43621;BME280;29213;50.770;7.298;2023-03-11T02:57:41;99960.69;;;0.12;57.63
43621;BME280;29213;50.770;7.298;2023-03-11T03:00:07;99961.19;;;0.17;57.35
43621;BME280;29213;50.770;7.298;2023-03-11T03:02:38;99867.16;;;-0.35;57.46
43621;BME280;29213;50.770;7.298;2023-03-11T03:05:04;100001.47;;;0.52;57.00
43621;BME280;29213;50.770;7.298;2023-03-11T03:07:31;99927.41;;;0.01;56.93
43621;BME280;29213;50.770;7.298;2023-03-11T03:09:56;99934.56;;;-0.01;56.53
43621;BME280;29213;50.770;7.298;2023-03-11T03:12:21;100004.34;;;0.24;56.08
43621;BME280;29213;50.770;7.298;2023-03-11T03:14:47;99917.34;;;-0.17;56.29
43621;BME280;29213;50.770;7.298;2023-03-11T03:17:12;99947.22;;;0.05;56.27
43621;BME280;29213;50.770;7.298;2023-03-11T03:19:38;99940.06;;;0.07;56.57
43621;BME280;29213;50.770;7.298;2023-03-11T03:22:03;99993.13;;;0.47;55.35
43621;BME280;29213;50.770;7.298;2023-03-11T03:24:28;99947.16;;;0.18;55.28
43621;BME280;29213;50.770;7.298;2023-03-11T03:26:54;99990.13;;;0.40;55.44
43621;BME280;29213;50.770;7.298;2023-03-11T03:29:19;99933.63;;;-0.00;54.79
43621;BME280;29213;50.770;7.298;2023-03-11T03:31:45;100001.44;;;0.40;55.40
43621;BME280;29213;50.770;7.298;2023-03-11T03:34:10;100004.84;;;0.54;55.02
43621;BME280;29213;50.770;7.298;2023-03-11T03:36:36;99920.53;;;-0.00;54.95
43621;BME280;29213;50.770;7.298;2023-03-11T03:39:02;99999.19;;;0.47;55.22
43621;BME280;29213;50.770;7.298;2023-03-11T03:41:27;99997.53;;;0.46;54.99
43621;BME280;29213;50.770;7.298;2023-03-11T03:43:53;99980.31;;;0.31;54.58
43621;BME280;29213;50.770;7.298;2023-03-11T03:46:19;100019.16;;;0.61;55.37
43621;BME280;29213;50.770;7.298;2023-03-11T03:48:45;100026.56;;;0.67;54.88
43621;BME280;29213;50.770;7.298;2023-03-11T03:51:11;100030.75;;;0.70;54.30
43621;BME280;29213;50.770;7.298;2023-03-11T03:53:37;100036.69;;;0.72;54.51
43621;BME280;29213;50.770;7.298;2023-03-11T03:56:08;99921.47;;;-0.01;54.18
43621;BME280;29213;50.770;7.298;2023-03-11T03:58:35;100038.25;;;0.75;54.47
43621;BME280;29213;50.770;7.298;2023-03-11T04:01:00;100022.00;;;0.58;54.43
43621;BME280;29213;50.770;7.298;2023-03-11T04:03:26;100046.88;;;0.77;53.97
43621;BME280;29213;50.770;7.298;2023-03-11T04:05:52;100050.31;;;0.77;54.08
43621;BME280;29213;50.770;7.298;2023-03-11T04:08:18;100046.88;;;0.77;53.94
43621;BME280;29213;50.770;7.298;2023-03-11T04:10:44;100053.63;;;0.68;53.13
43621;BME280;29213;50.770;7.298;2023-03-11T04:13:09;100055.28;;;0.69;53.43
43621;BME280;29213;50.770;7.298;2023-03-11T04:15:37;100062.41;;;0.67;53.31
43621;BME280;29213;50.770;7.298;2023-03-11T04:18:02;99986.75;;;0.13;52.54
43621;BME280;29213;50.770;7.298;2023-03-11T04:20:28;100035.66;;;0.26;52.69
43621;BME280;29213;50.770;7.298;2023-03-11T04:22:53;99921.41;;;-0.50;52.07
43621;BME280;29213;50.770;7.298;2023-03-11T04:25:18;99968.91;;;-0.30;52.89
43621;BME280;29213;50.770;7.298;2023-03-11T04:27:44;100025.44;;;-0.03;52.70
43621;BME280;29213;50.770;7.298;2023-03-11T04:30:11;100077.00;;;0.34;53.11
43621;BME280;29213;50.770;7.298;2023-03-11T04:32:36;99938.47;;;-0.44;53.34
43621;BME280;29213;50.770;7.298;2023-03-11T04:35:03;100052.44;;;0.23;52.86
43621;BME280;29213;50.770;7.298;2023-03-11T04:37:28;100095.59;;;0.55;53.11
43621;BME280;29213;50.770;7.298;2023-03-11T04:39:54;99997.09;;;-0.09;52.55
43621;BME280;29213;50.770;7.298;2023-03-11T04:42:19;100102.31;;;0.59;53.05
43621;BME280;29213;50.770;7.298;2023-03-11T04:44:45;99980.66;;;-0.12;52.57
43621;BME280;29213;50.770;7.298;2023-03-11T04:47:10;100048.75;;;0.26;52.86
43621;BME280;29213;50.770;7.298;2023-03-11T04:49:35;99980.78;;;-0.13;52.95
43621;BME280;29213;50.770;7.298;2023-03-11T04:52:01;100005.88;;;0.03;52.54
43621;BME280;29213;50.770;7.298;2023-03-11T04:54:26;100027.09;;;0.11;52.76
43621;BME280;29213;50.770;7.298;2023-03-11T04:56:52;100069.59;;;0.27;52.90
43621;BME280;29213;50.770;7.298;2023-03-11T04:59:17;100068.53;;;0.30;52.86
43621;BME280;29213;50.770;7.298;2023-03-11T05:01:43;99994.09;;;-0.16;52.79
43621;BME280;29213;50.770;7.298;2023-03-11T05:04:08;100011.75;;;-0.07;52.80
43621;BME280;29213;50.770;7.298;2023-03-11T05:06:35;100108.09;;;0.51;53.37
43621;BME280;29213;50.770;7.298;2023-03-11T05:09:00;100002.16;;;-0.19;53.67
43621;BME280;29213;50.770;7.298;2023-03-11T05:11:25;100004.56;;;-0.16;53.82
43621;BME280;29213;50.770;7.298;2023-03-11T05:13:51;100089.28;;;0.33;53.65
43621;BME280;29213;50.770;7.298;2023-03-11T05:16:16;100026.00;;;-0.11;53.83
43621;BME280;29213;50.770;7.298;2023-03-11T05:18:42;100043.50;;;-0.12;53.75
43621;BME280;29213;50.770;7.298;2023-03-11T05:21:07;100016.19;;;-0.20;54.06
43621;BME280;29213;50.770;7.298;2023-03-11T05:23:32;100048.31;;;-0.05;53.63
43621;BME280;29213;50.770;7.298;2023-03-11T05:25:58;100042.38;;;-0.20;53.49
43621;BME280;29213;50.770;7.298;2023-03-11T05:28:23;100010.34;;;-0.37;53.40
43621;BME280;29213;50.770;7.298;2023-03-11T05:30:48;100087.75;;;0.05;54.56
43621;BME280;29213;50.770;7.298;2023-03-11T05:33:14;100124.81;;;0.24;54.65
43621;BME280;29213;50.770;7.298;2023-03-11T05:35:40;100132.06;;;0.21;54.91
43621;BME280;29213;50.770;7.298;2023-03-11T05:38:06;100050.94;;;-0.31;54.99
43621;BME280;29213;50.770;7.298;2023-03-11T05:40:32;100138.44;;;0.17;54.85
43621;BME280;29213;50.770;7.298;2023-03-11T05:42:57;100111.56;;;-0.12;54.45
43621;BME280;29213;50.770;7.298;2023-03-11T05:45:23;99996.03;;;-0.83;54.65
43621;BME280;29213;50.770;7.298;2023-03-11T05:47:50;100075.97;;;-0.40;54.95
43621;BME280;29213;50.770;7.298;2023-03-11T05:50:16;100152.94;;;0.09;55.14
43621;BME280;29213;50.770;7.298;2023-03-11T05:52:41;99970.63;;;-1.07;54.31
43621;BME280;29213;50.770;7.298;2023-03-11T05:55:07;100085.63;;;-0.41;55.33
43621;BME280;29213;50.770;7.298;2023-03-11T05:57:35;100103.59;;;-0.36;55.46
43621;BME280;29213;50.770;7.298;2023-03-11T06:00:02;100045.94;;;-0.73;55.47
43621;BME280;29213;50.770;7.298;2023-03-11T06:02:28;100143.94;;;-0.13;55.47
43621;BME280;29213;50.770;7.298;2023-03-11T06:04:53;100142.03;;;-0.10;55.50
43621;BME280;29213;50.770;7.298;2023-03-11T06:07:19;100134.69;;;-0.18;55.30
43621;BME280;29213;50.770;7.298;2023-03-11T06:09:44;99986.91;;;-1.16;55.38
43621;BME280;29213;50.770;7.298;2023-03-11T06:12:09;100173.88;;;-0.04;55.18
43621;BME280;29213;50.770;7.298;2023-03-11T06:14:35;100088.22;;;-0.54;55.29
43621;BME280;29213;50.770;7.298;2023-03-11T06:17:03;100156.25;;;-0.15;55.17
43621;BME280;29213;50.770;7.298;2023-03-11T06:19:29;100094.19;;;-0.52;54.83
43621;BME280;29213;50.770;7.298;2023-03-11T06:21:54;100094.06;;;-0.50;54.98
43621;BME280;29213;50.770;7.298;2023-03-11T06:24:19;100051.28;;;-0.75;55.24
43621;BME280;29213;50.770;7.298;2023-03-11T06:26:45;100082.66;;;-0.49;55.36
43621;BME280;29213;50.770;7.298;2023-03-11T06:29:12;100174.28;;;0.03;55.53
43621;BME280;29213;50.770;7.298;2023-03-11T06:31:38;100029.72;;;-0.91;55.55
43621;BME280;29213;50.770;7.298;2023-03-11T06:34:04;100060.88;;;-0.75;55.81
43621;BME280;29213;50.770;7.298;2023-03-11T06:36:31;100181.22;;;0.04;55.88
43621;BME280;29213;50.770;7.298;2023-03-11T06:38:56;100074.41;;;-0.69;55.21
43621;BME280;29213;50.770;7.298;2023-03-11T06:41:22;100189.06;;;0.04;55.07
43621;BME280;29213;50.770;7.298;2023-03-11T06:43:48;100147.34;;;-0.25;55.36
43621;BME280;29213;50.770;7.298;2023-03-11T06:46:16;100159.84;;;-0.16;54.63
43621;BME280;29213;50.770;7.298;2023-03-11T06:48:42;100184.66;;;0.05;54.89
43621;BME280;29213;50.770;7.298;2023-03-11T06:51:08;100207.16;;;0.20;54.25
43621;BME280;29213;50.770;7.298;2023-03-11T06:53:34;100199.63;;;0.16;54.37
43621;BME280;29213;50.770;7.298;2023-03-11T06:56:10;100155.34;;;-0.14;54.58
43621;BME280;29213;50.770;7.298;2023-03-11T06:58:39;100183.50;;;0.09;54.52
43621;BME280;29213;50.770;7.298;2023-03-11T07:01:07;100112.63;;;-0.27;54.10
43621;BME280;29213;50.770;7.298;2023-03-11T07:03:33;100118.56;;;-0.25;54.33
43621;BME280;29213;50.770;7.298;2023-03-11T07:05:58;100191.66;;;0.30;53.98
43621;BME280;29213;50.770;7.298;2023-03-11T07:08:24;100128.63;;;-0.06;53.54
43621;BME280;29213;50.770;7.298;2023-03-11T07:11:03;100239.41;;;0.60;53.29
43621;BME280;29213;50.770;7.298;2023-03-11T07:13:28;100205.38;;;0.34;53.32
43621;BME280;29213;50.770;7.298;2023-03-11T07:18:30;100262.91;;;0.61;52.32
43621;BME280;29213;50.770;7.298;2023-03-11T07:20:56;100207.06;;;0.22;52.74
43621;BME280;29213;50.770;7.298;2023-03-11T07:23:21;100139.13;;;-0.19;52.86
43621;BME280;29213;50.770;7.298;2023-03-11T07:25:47;100211.97;;;0.39;52.61
43621;BME280;29213;50.770;7.298;2023-03-11T07:28:13;100199.22;;;0.35;52.79
43621;BME280;29213;50.770;7.298;2023-03-11T07:30:39;100276.19;;;0.84;51.47
43621;BME280;29213;50.770;7.298;2023-03-11T07:33:05;100248.75;;;0.64;52.07
43621;BME280;29213;50.770;7.298;2023-03-11T07:35:30;100228.66;;;0.51;52.55
43621;BME280;29213;50.770;7.298;2023-03-11T07:37:56;100264.66;;;0.74;51.70
43621;BME280;29213;50.770;7.298;2023-03-11T07:40:21;100300.72;;;0.96;51.85
43621;BME280;29213;50.770;7.298;2023-03-11T07:42:47;100271.28;;;0.79;52.06
43621;BME280;29213;50.770;7.298;2023-03-11T07:45:13;100270.94;;;0.84;52.31
43621;BME280;29213;50.770;7.298;2023-03-11T07:47:38;100200.22;;;0.95;66.80
43621;BME280;29213;50.770;7.298;2023-03-11T07:50:04;100240.03;;;2.10;57.96
43621;BME280;29213;50.770;7.298;2023-03-11T07:52:31;100312.94;;;2.42;52.67
43621;BME280;29213;50.770;7.298;2023-03-11T07:54:57;100220.56;;;1.77;51.37
43621;BME280;29213;50.770;7.298;2023-03-11T07:57:22;100314.72;;;2.30;51.05
43621;BME280;29213;50.770;7.298;2023-03-11T07:59:47;100268.84;;;1.98;50.63
43621;BME280;29213;50.770;7.298;2023-03-11T08:02:13;100274.91;;;2.12;50.57
43621;BME280;29213;50.770;7.298;2023-03-11T08:04:38;100289.03;;;2.22;51.46
43621;BME280;29213;50.770;7.298;2023-03-11T08:07:04;100319.28;;;2.39;50.46
43621;BME280;29213;50.770;7.298;2023-03-11T08:09:29;100295.50;;;2.30;49.77
43621;BME280;29213;50.770;7.298;2023-03-11T08:11:54;100313.44;;;2.47;49.37
43621;BME280;29213;50.770;7.298;2023-03-11T08:14:20;100159.81;;;1.58;49.06
43621;BME280;29213;50.770;7.298;2023-03-11T08:16:45;100310.81;;;2.59;48.74
43621;BME280;29213;50.770;7.298;2023-03-11T08:19:11;100343.34;;;2.80;48.06
43621;BME280;29213;50.770;7.298;2023-03-11T08:21:37;100345.13;;;2.91;48.39
43621;BME280;29213;50.770;7.298;2023-03-11T08:24:02;100309.75;;;2.73;47.05
43621;BME280;29213;50.770;7.298;2023-03-11T08:26:29;100290.25;;;2.64;47.44
43621;BME280;29213;50.770;7.298;2023-03-11T08:28:55;100242.94;;;2.41;47.58
43621;BME280;29213;50.770;7.298;2023-03-11T08:31:23;100338.81;;;3.17;46.63
43621;BME280;29213;50.770;7.298;2023-03-11T08:33:52;100336.38;;;3.25;46.77
43621;BME280;29213;50.770;7.298;2023-03-11T08:36:18;100297.66;;;3.04;46.77
43621;BME280;29213;50.770;7.298;2023-03-11T08:38:44;100290.69;;;3.15;46.99
43621;BME280;29213;50.770;7.298;2023-03-11T08:41:09;100284.94;;;3.21;46.01
43621;BME280;29213;50.770;7.298;2023-03-11T08:43:35;100333.69;;;3.59;46.26
43621;BME280;29213;50.770;7.298;2023-03-11T08:46:01;100242.97;;;3.08;45.37
43621;BME280;29213;50.770;7.298;2023-03-11T08:48:27;100343.66;;;3.77;45.73
43621;BME280;29213;50.770;7.298;2023-03-11T08:50:53;100312.09;;;3.66;45.13
43621;BME280;29213;50.770;7.298;2023-03-11T08:53:18;100282.25;;;3.44;45.30
43621;BME280;29213;50.770;7.298;2023-03-11T08:55:44;100264.94;;;3.30;45.03
43621;BME280;29213;50.770;7.298;2023-03-11T08:58:09;100231.81;;;3.27;44.29
43621;BME280;29213;50.770;7.298;2023-03-11T09:00:35;100264.03;;;3.52;44.71
43621;BME280;29213;50.770;7.298;2023-03-11T09:03:00;100323.53;;;4.09;43.49
43621;BME280;29213;50.770;7.298;2023-03-11T09:05:25;100313.72;;;4.11;42.70
43621;BME280;29213;50.770;7.298;2023-03-11T09:07:51;100263.88;;;3.86;40.60
43621;BME280;29213;50.770;7.298;2023-03-11T09:10:17;100330.16;;;4.24;41.83
43621;BME280;29213;50.770;7.298;2023-03-11T09:12:42;100256.38;;;3.82;40.01
43621;BME280;29213;50.770;7.298;2023-03-11T09:15:09;100349.84;;;4.41;40.61
43621;BME280;29213;50.770;7.298;2023-03-11T09:17:34;100346.41;;;4.51;40.04
43621;BME280;29213;50.770;7.298;2023-03-11T09:20:00;100267.56;;;3.95;38.88
43621;BME280;29213;50.770;7.298;2023-03-11T09:22:26;100342.31;;;3.94;37.74
43621;BME280;29213;50.770;7.298;2023-03-11T09:24:51;100327.41;;;3.72;39.88
43621;BME280;29213;50.770;7.298;2023-03-11T09:27:17;100330.25;;;3.80;40.39
43621;BME280;29213;50.770;7.298;2023-03-11T09:29:42;100316.97;;;3.82;39.16
43621;BME280;29213;50.770;7.298;2023-03-11T09:32:11;100344.38;;;4.12;36.83
43621;BME280;29213;50.770;7.298;2023-03-11T09:34:37;100296.19;;;3.88;37.03
43621;BME280;29213;50.770;7.298;2023-03-11T09:37:02;100262.91;;;3.87;37.41
43621;BME280;29213;50.770;7.298;2023-03-11T09:39:28;100306.31;;;4.26;37.98
43621;BME280;29213;50.770;7.298;2023-03-11T09:42:14;100349.81;;;4.32;37.82
43621;BME280;29213;50.770;7.298;2023-03-11T09:47:36;100342.59;;;4.34;38.04
43621;BME280;29213;50.770;7.298;2023-03-11T09:53:14;100346.88;;;4.35;37.57
43621;BME280;29213;50.770;7.298;2023-03-11T09:55:54;100318.06;;;4.00;37.69
43621;BME280;29213;50.770;7.298;2023-03-11T10:01:20;100356.22;;;4.18;37.72
43621;BME280;29213;50.770;7.298;2023-03-11T10:03:51;100334.97;;;3.98;37.52
43621;BME280;29213;50.770;7.298;2023-03-11T10:06:22;100372.28;;;4.36;37.72
43621;BME280;29213;50.770;7.298;2023-03-11T10:11:55;100369.91;;;4.75;36.46
43621;BME280;29213;50.770;7.298;2023-03-11T10:17:00;100369.81;;;5.08;36.26
43621;BME280;29213;50.770;7.298;2023-03-11T10:19:43;100335.63;;;4.75;36.11
43621;BME280;29213;50.770;7.298;2023-03-11T10:22:19;100349.06;;;5.03;35.61
43621;BME280;29213;50.770;7.298;2023-03-11T10:27:38;100390.06;;;5.48;35.27
43621;BME280;29213;50.770;7.298;2023-03-11T10:30:19;100388.22;;;5.39;35.44
43621;BME280;29213;50.770;7.298;2023-03-11T10:33:13;100387.25;;;5.30;35.19
43621;BME280;29213;50.770;7.298;2023-03-11T10:35:45;100393.94;;;5.03;33.66
43621;BME280;29213;50.770;7.298;2023-03-11T10:38:24;100352.66;;;4.50;34.66
43621;BME280;29213;50.770;7.298;2023-03-11T10:40:52;100385.22;;;4.81;34.75
43621;BME280;29213;50.770;7.298;2023-03-11T10:43:20;100386.50;;;4.87;34.99
43621;BME280;29213;50.770;7.298;2023-03-11T10:45:50;100369.47;;;4.70;34.84
43621;BME280;29213;50.770;7.298;2023-03-11T10:48:18;100400.16;;;4.92;35.10
43621;BME280;29213;50.770;7.298;2023-03-11T10:53:19;100385.50;;;4.78;34.29
43621;BME280;29213;50.770;7.298;2023-03-11T10:55:50;100401.59;;;5.06;34.85
43621;BME280;29213;50.770;7.298;2023-03-11T10:58:21;100402.53;;;5.36;35.21
43621;BME280;29213;50.770;7.298;2023-03-11T11:01:15;100402.31;;;5.59;34.18
43621;BME280;29213;50.770;7.298;2023-03-11T11:03:42;100402.63;;;5.66;34.18
43621;BME280;29213;50.770;7.298;2023-03-11T11:06:21;100392.22;;;5.74;34.42
43621;BME280;29213;50.770;7.298;2023-03-11T11:08:47;100371.34;;;5.61;34.12
43621;BME280;29213;50.770;7.298;2023-03-11T11:11:23;100387.34;;;5.80;33.83
43621;BME280;29213;50.770;7.298;2023-03-11T11:13:56;100384.00;;;5.78;34.25
43621;BME280;29213;50.770;7.298;2023-03-11T11:16:22;100335.28;;;5.41;34.36
43621;BME280;29213;50.770;7.298;2023-03-11T11:21:38;100388.28;;;5.59;34.57
43621;BME280;29213;50.770;7.298;2023-03-11T11:24:24;100391.94;;;5.68;34.23
43621;BME280;29213;50.770;7.298;2023-03-11T11:27:25;100394.56;;;5.78;34.26
43621;BME280;29213;50.770;7.298;2023-03-11T11:30:13;100361.47;;;5.63;34.66
43621;BME280;29213;50.770;7.298;2023-03-11T11:32:39;100342.53;;;5.58;34.52
43621;BME280;29213;50.770;7.298;2023-03-11T11:35:15;100380.13;;;5.82;34.63
43621;BME280;29213;50.770;7.298;2023-03-11T11:37:52;100377.47;;;5.82;33.97
43621;BME280;29213;50.770;7.298;2023-03-11T11:40:27;100356.03;;;5.65;33.52
43621;BME280;29213;50.770;7.298;2023-03-11T11:45:56;100305.81;;;5.45;33.91
43621;BME280;29213;50.770;7.298;2023-03-11T11:48:49;100352.16;;;5.89;34.87
43621;BME280;29213;50.770;7.298;2023-03-11T11:51:22;100336.44;;;5.87;34.56
43621;BME280;29213;50.770;7.298;2023-03-11T11:54:14;100316.69;;;5.82;33.71
43621;BME280;29213;50.770;7.298;2023-03-11T11:56:42;100385.69;;;6.08;33.47
43621;BME280;29213;50.770;7.298;2023-03-11T11:59:19;100377.91;;;6.07;33.17
43621;BME280;29213;50.770;7.298;2023-03-11T12:01:52;100395.16;;;6.21;33.95
43621;BME280;29213;50.770;7.298;2023-03-11T12:04:51;100393.63;;;6.18;33.33
43621;BME280;29213;50.770;7.298;2023-03-11T12:07:31;100382.63;;;6.13;33.48
43621;BME280;29213;50.770;7.298;2023-03-11T12:10:11;100388.75;;;6.13;33.83
43621;BME280;29213;50.770;7.298;2023-03-11T12:18:50;100356.88;;;5.85;32.22
43621;BME280;29213;50.770;7.298;2023-03-11T12:26:40;100342.28;;;5.61;34.52
43621;BME280;29213;50.770;7.298;2023-03-11T12:29:39;100378.19;;;6.03;34.05
43621;BME280;29213;50.770;7.298;2023-03-11T12:32:13;100334.50;;;5.99;32.52
43621;BME280;29213;50.770;7.298;2023-03-11T12:34:45;100349.06;;;6.23;33.30
43621;BME280;29213;50.770;7.298;2023-03-11T12:37:13;100306.91;;;6.32;33.08
43621;BME280;29213;50.770;7.298;2023-03-11T12:39:41;100345.81;;;6.69;33.20
43621;BME280;29213;50.770;7.298;2023-03-11T12:44:36;100371.28;;;6.80;32.58
43621;BME280;29213;50.770;7.298;2023-03-11T12:47:16;100397.63;;;6.81;31.96
43621;BME280;29213;50.770;7.298;2023-03-11T12:49:47;100405.38;;;6.83;33.10
43621;BME280;29213;50.770;7.298;2023-03-11T12:54:43;100341.69;;;6.37;32.17
43621;BME280;29213;50.770;7.298;2023-03-11T12:57:31;100372.03;;;6.52;31.98
43621;BME280;29213;50.770;7.298;2023-03-11T13:00:23;100361.19;;;6.46;31.61
43621;BME280;29213;50.770;7.298;2023-03-11T13:03:23;100380.53;;;6.46;30.83
43621;BME280;29213;50.770;7.298;2023-03-11T13:08:52;100380.69;;;6.54;31.29
43621;BME280;29213;50.770;7.298;2023-03-11T13:14:15;100377.59;;;6.59;31.25
43621;BME280;29213;50.770;7.298;2023-03-11T13:16:46;100374.81;;;6.61;31.85
43621;BME280;29213;50.770;7.298;2023-03-11T13:21:53;100383.56;;;6.71;31.41
43621;BME280;29213;50.770;7.298;2023-03-11T13:30:02;100381.81;;;6.90;31.29
43621;BME280;29213;50.770;7.298;2023-03-11T13:35:15;100353.06;;;6.67;30.93
43621;BME280;29213;50.770;7.298;2023-03-11T13:40:38;100374.22;;;7.15;30.53
43621;BME280;29213;50.770;7.298;2023-03-11T13:43:09;100342.31;;;7.34;30.11
43621;BME280;29213;50.770;7.298;2023-03-11T13:45:37;100380.31;;;7.71;29.79
43621;BME280;29213;50.770;7.298;2023-03-11T13:48:09;100383.03;;;7.61;30.12
43621;BME280;29213;50.770;7.298;2023-03-11T13:50:42;100382.63;;;7.56;30.75
43621;BME280;29213;50.770;7.298;2023-03-11T13:53:16;100298.03;;;6.99;30.32
43621;BME280;29213;50.770;7.298;2023-03-11T13:55:44;100338.84;;;7.52;31.29
43621;BME280;29213;50.770;7.298;2023-03-11T13:58:20;100310.91;;;7.40;32.39
43621;BME280;29213;50.770;7.298;2023-03-11T14:03:19;100363.44;;;7.44;31.36
43621;BME280;29213;50.770;7.298;2023-03-11T14:06:06;100364.81;;;7.48;30.57
43621;BME280;29213;50.770;7.298;2023-03-11T14:08:36;100389.03;;;7.82;30.41
43621;BME280;29213;50.770;7.298;2023-03-11T14:11:03;100377.13;;;7.68;30.02
43621;BME280;29213;50.770;7.298;2023-03-11T14:13:43;100385.28;;;7.56;30.16
43621;BME280;29213;50.770;7.298;2023-03-11T14:19:01;100366.47;;;7.31;29.64